sensor_id;sensor_type;location;lat;lon;timestamp;P1;durP1;ratioP1;P2;durP2;ratioP2
22543;SDS011;11438;52.044;8.716;2023-09-18T00:00:38;5.28;;;3.78;;
22543;SDS011;11438;52.044;8.716;2023-09-18T00:03:04;3.70;;;2.70;;
22543;SDS011;11438;52.044;8.716;2023-09-18T00:05:30;4.93;;;3.17;;
22543;SDS011;11438;52.044;8.716;2023-09-18T00:07:56;7.45;;;3.65;;
22543;SDS011;11438;52.044;8.716;2023-09-18T00:10:21;3.67;;;3.17;;
22543;SDS011;11438;52.044;8.716;2023-09-18T00:12:47;5.15;;;3.13;;
22543;SDS011;11438;52.044;8.716;2023-09-18T00:15:12;5.32;;;3.30;;
22543;SDS011;11438;52.044;8.716;2023-09-18T00:17:38;7.28;;;3.47;;
22543;SDS011;11438;52.044;8.716;2023-09-18T00:20:04;4.93;;;3.25;;
22543;SDS011;11438;52.044;8.716;2023-09-18T00:22:31;4.57;;;3.05;;
22543;SDS011;11438;52.044;8.716;2023-09-18T00:24:57;4.45;;;3.50;;
22543;SDS011;11438;52.044;8.716;2023-09-18T00:27:23;3.90;;;3.13;;
22543;SDS011;11438;52.044;8.716;2023-09-18T00:29:48;4.53;;;3.10;;
22543;SDS011;11438;52.044;8.716;2023-09-18T00:32:14;4.35;;;3.30;;
22543;SDS011;11438;52.044;8.716;2023-09-18T00:34:39;4.97;;;3.50;;
22543;SDS011;11438;52.044;8.716;2023-09-18T00:37:05;6.57;;;3.33;;
22543;SDS011;11438;52.044;8.716;2023-09-18T00:39:30;5.20;;;3.40;;
22543;SDS011;11438;52.044;8.716;2023-09-18T00:41:56;4.45;;;3.70;;
22543;SDS011;11438;52.044;8.716;2023-09-18T00:44:22;7.63;;;3.70;;
22543;SDS011;11438;52.044;8.716;2023-09-18T00:46:48;3.67;;;3.08;;
22543;SDS011;11438;52.044;8.716;2023-09-18T00:49:15;3.97;;;2.92;;
22543;SDS011;11438;52.044;8.716;2023-09-18T00:51:42;4.32;;;3.30;;
22543;SDS011;11438;52.044;8.716;2023-09-18T00:54:08;5.55;;;3.50;;
22543;SDS011;11438;52.044;8.716;2023-09-18T00:56:35;6.38;;;3.08;;
22543;SDS011;11438;52.044;8.716;2023-09-18T00:59:00;7.28;;;3.40;;
22543;SDS011;11438;52.044;8.716;2023-09-18T01:01:28;6.05;;;3.60;;
22543;SDS011;11438;52.044;8.716;2023-09-18T01:03:54;4.60;;;3.38;;
22543;SDS011;11438;52.044;8.716;2023-09-18T01:06:21;4.38;;;3.45;;
22543;SDS011;11438;52.044;8.716;2023-09-18T01:08:50;4.18;;;3.00;;
22543;SDS011;11438;52.044;8.716;2023-09-18T01:11:41;4.95;;;3.20;;
22543;SDS011;11438;52.044;8.716;2023-09-18T01:14:20;6.55;;;3.58;;
22543;SDS011;11438;52.044;8.716;2023-09-18T01:16:58;4.57;;;3.10;;
22543;SDS011;11438;52.044;8.716;2023-09-18T01:19:37;3.17;;;2.67;;
22543;SDS011;11438;52.044;8.716;2023-09-18T01:22:05;4.00;;;2.97;;
22543;SDS011;11438;52.044;8.716;2023-09-18T01:24:35;8.32;;;3.65;;
22543;SDS011;11438;52.044;8.716;2023-09-18T01:27:01;4.53;;;3.58;;
22543;SDS011;11438;52.044;8.716;2023-09-18T01:29:31;5.75;;;3.30;;
22543;SDS011;11438;52.044;8.716;2023-09-18T01:31:56;6.57;;;3.70;;
22543;SDS011;11438;52.044;8.716;2023-09-18T01:34:25;6.40;;;3.40;;
22543;SDS011;11438;52.044;8.716;2023-09-18T01:36:54;5.18;;;3.50;;
22543;SDS011;11438;52.044;8.716;2023-09-18T01:39:22;5.93;;;3.42;;
22543;SDS011;11438;52.044;8.716;2023-09-18T01:41:48;4.95;;;3.58;;
22543;SDS011;11438;52.044;8.716;2023-09-18T01:44:15;5.32;;;3.72;;
22543;SDS011;11438;52.044;8.716;2023-09-18T01:46:40;4.43;;;3.28;;
22543;SDS011;11438;52.044;8.716;2023-09-18T01:49:08;4.47;;;3.42;;
22543;SDS011;11438;52.044;8.716;2023-09-18T01:51:33;4.60;;;3.08;;
22543;SDS011;11438;52.044;8.716;2023-09-18T01:53:59;5.32;;;3.70;;
22543;SDS011;11438;52.044;8.716;2023-09-18T01:56:25;3.95;;;3.05;;
22543;SDS011;11438;52.044;8.716;2023-09-18T01:58:50;5.60;;;3.78;;
22543;SDS011;11438;52.044;8.716;2023-09-18T02:01:16;5.45;;;3.90;;
22543;SDS011;11438;52.044;8.716;2023-09-18T02:03:42;6.28;;;3.60;;
22543;SDS011;11438;52.044;8.716;2023-09-18T02:06:07;4.15;;;3.28;;
22543;SDS011;11438;52.044;8.716;2023-09-18T02:08:36;6.43;;;3.58;;
22543;SDS011;11438;52.044;8.716;2023-09-18T02:11:01;5.60;;;3.30;;
22543;SDS011;11438;52.044;8.716;2023-09-18T02:13:30;6.32;;;3.70;;
22543;SDS011;11438;52.044;8.716;2023-09-18T02:15:55;5.47;;;3.90;;
22543;SDS011;11438;52.044;8.716;2023-09-18T02:18:21;4.10;;;3.65;;
22543;SDS011;11438;52.044;8.716;2023-09-18T02:20:47;4.70;;;3.78;;
22543;SDS011;11438;52.044;8.716;2023-09-18T02:23:14;4.90;;;3.90;;
22543;SDS011;11438;52.044;8.716;2023-09-18T02:25:40;6.68;;;3.67;;
22543;SDS011;11438;52.044;8.716;2023-09-18T02:28:06;5.07;;;3.65;;
22543;SDS011;11438;52.044;8.716;2023-09-18T02:30:32;4.63;;;3.25;;
22543;SDS011;11438;52.044;8.716;2023-09-18T02:32:57;6.72;;;3.80;;
22543;SDS011;11438;52.044;8.716;2023-09-18T02:35:24;3.75;;;3.33;;
22543;SDS011;11438;52.044;8.716;2023-09-18T02:37:50;4.15;;;3.55;;
22543;SDS011;11438;52.044;8.716;2023-09-18T02:40:15;4.95;;;3.70;;
22543;SDS011;11438;52.044;8.716;2023-09-18T02:42:41;4.88;;;3.55;;
22543;SDS011;11438;52.044;8.716;2023-09-18T02:45:06;6.50;;;3.88;;
22543;SDS011;11438;52.044;8.716;2023-09-18T02:47:33;5.82;;;3.83;;
22543;SDS011;11438;52.044;8.716;2023-09-18T02:49:59;7.25;;;3.85;;
22543;SDS011;11438;52.044;8.716;2023-09-18T02:52:24;6.68;;;3.40;;
22543;SDS011;11438;52.044;8.716;2023-09-18T02:54:50;6.40;;;3.80;;
22543;SDS011;11438;52.044;8.716;2023-09-18T02:57:15;5.57;;;3.65;;
22543;SDS011;11438;52.044;8.716;2023-09-18T02:59:41;4.72;;;3.50;;
22543;SDS011;11438;52.044;8.716;2023-09-18T03:02:06;5.68;;;3.75;;
22543;SDS011;11438;52.044;8.716;2023-09-18T03:04:32;4.45;;;3.45;;
22543;SDS011;11438;52.044;8.716;2023-09-18T03:06:57;6.10;;;3.55;;
22543;SDS011;11438;52.044;8.716;2023-09-18T03:09:23;4.75;;;3.10;;
22543;SDS011;11438;52.044;8.716;2023-09-18T03:11:48;7.13;;;3.45;;
22543;SDS011;11438;52.044;8.716;2023-09-18T03:14:14;5.55;;;3.47;;
22543;SDS011;11438;52.044;8.716;2023-09-18T03:16:39;4.70;;;3.33;;
22543;SDS011;11438;52.044;8.716;2023-09-18T03:19:05;5.47;;;3.50;;
22543;SDS011;11438;52.044;8.716;2023-09-18T03:21:30;5.35;;;3.22;;
22543;SDS011;11438;52.044;8.716;2023-09-18T03:23:58;6.18;;;3.50;;
22543;SDS011;11438;52.044;8.716;2023-09-18T03:26:24;5.28;;;3.47;;
22543;SDS011;11438;52.044;8.716;2023-09-18T03:28:50;4.90;;;3.17;;
22543;SDS011;11438;52.044;8.716;2023-09-18T03:31:15;5.35;;;3.33;;
22543;SDS011;11438;52.044;8.716;2023-09-18T03:33:41;4.70;;;3.40;;
22543;SDS011;11438;52.044;8.716;2023-09-18T03:36:06;8.27;;;3.80;;
22543;SDS011;11438;52.044;8.716;2023-09-18T03:38:32;7.30;;;3.40;;
22543;SDS011;11438;52.044;8.716;2023-09-18T03:41:00;5.32;;;3.30;;
22543;SDS011;11438;52.044;8.716;2023-09-18T03:43:26;6.07;;;3.30;;
22543;SDS011;11438;52.044;8.716;2023-09-18T03:45:51;5.18;;;3.28;;
22543;SDS011;11438;52.044;8.716;2023-09-18T03:48:17;5.25;;;3.80;;
22543;SDS011;11438;52.044;8.716;2023-09-18T03:50:42;8.00;;;3.95;;
22543;SDS011;11438;52.044;8.716;2023-09-18T03:53:08;6.43;;;3.53;;
22543;SDS011;11438;52.044;8.716;2023-09-18T03:55:34;5.38;;;3.22;;
22543;SDS011;11438;52.044;8.716;2023-09-18T03:58:00;6.43;;;3.47;;
22543;SDS011;11438;52.044;8.716;2023-09-18T04:00:25;5.10;;;3.50;;
22543;SDS011;11438;52.044;8.716;2023-09-18T04:02:51;5.53;;;3.10;;
22543;SDS011;11438;52.044;8.716;2023-09-18T04:05:16;5.90;;;3.80;;
22543;SDS011;11438;52.044;8.716;2023-09-18T04:07:42;4.88;;;3.30;;
22543;SDS011;11438;52.044;8.716;2023-09-18T04:10:11;5.50;;;3.30;;
22543;SDS011;11438;52.044;8.716;2023-09-18T04:12:43;5.22;;;3.28;;
22543;SDS011;11438;52.044;8.716;2023-09-18T04:15:11;6.07;;;3.72;;
22543;SDS011;11438;52.044;8.716;2023-09-18T04:17:39;5.82;;;4.07;;
22543;SDS011;11438;52.044;8.716;2023-09-18T04:20:04;6.13;;;4.15;;
22543;SDS011;11438;52.044;8.716;2023-09-18T04:22:31;4.50;;;3.33;;
22543;SDS011;11438;52.044;8.716;2023-09-18T04:24:56;4.75;;;2.67;;
22543;SDS011;11438;52.044;8.716;2023-09-18T04:27:22;5.65;;;3.17;;
22543;SDS011;11438;52.044;8.716;2023-09-18T04:29:47;6.68;;;3.10;;
22543;SDS011;11438;52.044;8.716;2023-09-18T04:32:13;5.07;;;3.65;;
22543;SDS011;11438;52.044;8.716;2023-09-18T04:34:38;5.80;;;3.50;;
22543;SDS011;11438;52.044;8.716;2023-09-18T04:37:04;5.43;;;3.53;;
22543;SDS011;11438;52.044;8.716;2023-09-18T04:39:29;4.07;;;3.25;;
22543;SDS011;11438;52.044;8.716;2023-09-18T04:41:55;4.22;;;3.70;;
22543;SDS011;11438;52.044;8.716;2023-09-18T04:44:20;4.95;;;3.75;;
22543;SDS011;11438;52.044;8.716;2023-09-18T04:46:46;8.30;;;4.00;;
22543;SDS011;11438;52.044;8.716;2023-09-18T04:49:12;7.50;;;4.05;;
22543;SDS011;11438;52.044;8.716;2023-09-18T04:51:38;5.78;;;4.43;;
22543;SDS011;11438;52.044;8.716;2023-09-18T04:54:04;5.57;;;3.75;;
22543;SDS011;11438;52.044;8.716;2023-09-18T04:56:30;4.63;;;3.60;;
22543;SDS011;11438;52.044;8.716;2023-09-18T04:58:55;5.22;;;3.80;;
22543;SDS011;11438;52.044;8.716;2023-09-18T05:01:22;4.05;;;3.25;;
22543;SDS011;11438;52.044;8.716;2023-09-18T05:03:49;6.97;;;3.70;;
22543;SDS011;11438;52.044;8.716;2023-09-18T05:06:16;4.78;;;3.45;;
22543;SDS011;11438;52.044;8.716;2023-09-18T05:08:42;4.72;;;3.50;;
22543;SDS011;11438;52.044;8.716;2023-09-18T05:11:08;5.03;;;3.80;;
22543;SDS011;11438;52.044;8.716;2023-09-18T05:13:34;8.45;;;3.83;;
22543;SDS011;11438;52.044;8.716;2023-09-18T05:15:59;4.53;;;3.40;;
22543;SDS011;11438;52.044;8.716;2023-09-18T05:18:26;3.92;;;3.28;;
22543;SDS011;11438;52.044;8.716;2023-09-18T05:20:51;5.10;;;3.70;;
22543;SDS011;11438;52.044;8.716;2023-09-18T05:23:17;4.50;;;3.22;;
22543;SDS011;11438;52.044;8.716;2023-09-18T05:25:43;4.25;;;3.38;;
22543;SDS011;11438;52.044;8.716;2023-09-18T05:28:09;6.63;;;4.00;;
22543;SDS011;11438;52.044;8.716;2023-09-18T05:30:34;5.30;;;3.83;;
22543;SDS011;11438;52.044;8.716;2023-09-18T05:33:03;4.90;;;3.58;;
22543;SDS011;11438;52.044;8.716;2023-09-18T05:35:48;5.40;;;3.33;;
22543;SDS011;11438;52.044;8.716;2023-09-18T05:38:14;4.47;;;3.47;;
22543;SDS011;11438;52.044;8.716;2023-09-18T05:40:40;6.18;;;4.03;;
22543;SDS011;11438;52.044;8.716;2023-09-18T05:43:06;4.32;;;3.70;;
22543;SDS011;11438;52.044;8.716;2023-09-18T05:45:32;5.25;;;3.80;;
22543;SDS011;11438;52.044;8.716;2023-09-18T05:47:58;4.07;;;3.53;;
22543;SDS011;11438;52.044;8.716;2023-09-18T05:50:29;6.47;;;3.80;;
22543;SDS011;11438;52.044;8.716;2023-09-18T05:52:57;4.47;;;3.47;;
22543;SDS011;11438;52.044;8.716;2023-09-18T05:55:28;6.88;;;3.67;;
22543;SDS011;11438;52.044;8.716;2023-09-18T05:57:54;4.20;;;3.80;;
22543;SDS011;11438;52.044;8.716;2023-09-18T06:00:20;5.93;;;3.70;;
22543;SDS011;11438;52.044;8.716;2023-09-18T06:02:47;6.25;;;3.60;;
22543;SDS011;11438;52.044;8.716;2023-09-18T06:05:13;5.60;;;3.53;;
22543;SDS011;11438;52.044;8.716;2023-09-18T06:07:41;4.47;;;3.67;;
22543;SDS011;11438;52.044;8.716;2023-09-18T06:10:07;4.38;;;3.67;;
22543;SDS011;11438;52.044;8.716;2023-09-18T06:12:32;4.25;;;3.20;;
22543;SDS011;11438;52.044;8.716;2023-09-18T06:14:58;5.78;;;3.80;;
22543;SDS011;11438;52.044;8.716;2023-09-18T06:17:23;4.72;;;3.40;;
22543;SDS011;11438;52.044;8.716;2023-09-18T06:19:49;5.28;;;3.67;;
22543;SDS011;11438;52.044;8.716;2023-09-18T06:22:14;4.38;;;3.20;;
22543;SDS011;11438;52.044;8.716;2023-09-18T06:24:40;3.85;;;3.33;;
22543;SDS011;11438;52.044;8.716;2023-09-18T06:27:06;4.95;;;3.53;;
22543;SDS011;11438;52.044;8.716;2023-09-18T06:29:32;7.22;;;3.38;;
22543;SDS011;11438;52.044;8.716;2023-09-18T06:31:58;6.07;;;3.75;;
22543;SDS011;11438;52.044;8.716;2023-09-18T06:34:24;7.00;;;3.67;;
22543;SDS011;11438;52.044;8.716;2023-09-18T06:36:50;5.15;;;3.30;;
22543;SDS011;11438;52.044;8.716;2023-09-18T06:39:16;4.68;;;3.65;;
22543;SDS011;11438;52.044;8.716;2023-09-18T06:41:42;3.63;;;3.22;;
22543;SDS011;11438;52.044;8.716;2023-09-18T06:44:07;4.05;;;3.20;;
22543;SDS011;11438;52.044;8.716;2023-09-18T06:46:33;6.05;;;3.88;;
22543;SDS011;11438;52.044;8.716;2023-09-18T06:48:58;4.88;;;3.35;;
22543;SDS011;11438;52.044;8.716;2023-09-18T06:51:26;3.60;;;3.00;;
22543;SDS011;11438;52.044;8.716;2023-09-18T06:53:55;5.18;;;3.40;;
22543;SDS011;11438;52.044;8.716;2023-09-18T06:56:22;5.85;;;3.58;;
22543;SDS011;11438;52.044;8.716;2023-09-18T06:58:50;5.97;;;3.45;;
22543;SDS011;11438;52.044;8.716;2023-09-18T07:01:17;4.35;;;2.90;;
22543;SDS011;11438;52.044;8.716;2023-09-18T07:03:44;5.13;;;2.72;;
22543;SDS011;11438;52.044;8.716;2023-09-18T07:06:13;4.63;;;2.97;;
22543;SDS011;11438;52.044;8.716;2023-09-18T07:08:46;4.22;;;2.88;;
22543;SDS011;11438;52.044;8.716;2023-09-18T07:11:16;6.43;;;3.20;;
22543;SDS011;11438;52.044;8.716;2023-09-18T07:13:42;4.13;;;3.05;;
22543;SDS011;11438;52.044;8.716;2023-09-18T07:16:08;5.28;;;3.22;;
22543;SDS011;11438;52.044;8.716;2023-09-18T07:18:34;6.03;;;3.28;;
22543;SDS011;11438;52.044;8.716;2023-09-18T07:21:00;5.70;;;3.03;;
22543;SDS011;11438;52.044;8.716;2023-09-18T07:23:25;4.93;;;3.10;;
22543;SDS011;11438;52.044;8.716;2023-09-18T07:25:51;4.32;;;2.58;;
22543;SDS011;11438;52.044;8.716;2023-09-18T07:28:16;4.70;;;2.80;;
22543;SDS011;11438;52.044;8.716;2023-09-18T07:30:44;4.13;;;2.65;;
22543;SDS011;11438;52.044;8.716;2023-09-18T07:33:10;5.25;;;2.42;;
22543;SDS011;11438;52.044;8.716;2023-09-18T07:35:35;3.53;;;2.80;;
22543;SDS011;11438;52.044;8.716;2023-09-18T07:38:02;4.78;;;2.42;;
22543;SDS011;11438;52.044;8.716;2023-09-18T07:40:28;4.75;;;2.70;;
22543;SDS011;11438;52.044;8.716;2023-09-18T07:42:54;3.78;;;2.58;;
22543;SDS011;11438;52.044;8.716;2023-09-18T07:45:20;7.85;;;2.78;;
22543;SDS011;11438;52.044;8.716;2023-09-18T07:47:45;2.72;;;2.10;;
22543;SDS011;11438;52.044;8.716;2023-09-18T07:50:11;7.88;;;2.70;;
22543;SDS011;11438;52.044;8.716;2023-09-18T07:52:36;11.68;;;3.08;;
22543;SDS011;11438;52.044;8.716;2023-09-18T07:55:02;4.88;;;2.53;;
22543;SDS011;11438;52.044;8.716;2023-09-18T07:57:28;3.85;;;2.55;;
22543;SDS011;11438;52.044;8.716;2023-09-18T07:59:55;4.93;;;2.55;;
22543;SDS011;11438;52.044;8.716;2023-09-18T08:02:20;3.13;;;2.10;;
22543;SDS011;11438;52.044;8.716;2023-09-18T08:04:47;3.67;;;1.95;;
22543;SDS011;11438;52.044;8.716;2023-09-18T08:07:13;4.30;;;1.88;;
22543;SDS011;11438;52.044;8.716;2023-09-18T08:09:38;4.18;;;2.10;;
22543;SDS011;11438;52.044;8.716;2023-09-18T08:12:04;4.25;;;2.13;;
22543;SDS011;11438;52.044;8.716;2023-09-18T08:14:31;8.85;;;2.13;;
22543;SDS011;11438;52.044;8.716;2023-09-18T08:16:57;2.50;;;1.55;;
22543;SDS011;11438;52.044;8.716;2023-09-18T08:19:23;3.67;;;1.55;;
22543;SDS011;11438;52.044;8.716;2023-09-18T08:21:51;7.43;;;2.13;;
22543;SDS011;11438;52.044;8.716;2023-09-18T08:24:18;4.03;;;1.48;;
22543;SDS011;11438;52.044;8.716;2023-09-18T08:26:44;3.33;;;1.55;;
22543;SDS011;11438;52.044;8.716;2023-09-18T08:29:09;5.13;;;1.50;;
22543;SDS011;11438;52.044;8.716;2023-09-18T08:31:35;4.40;;;1.25;;
22543;SDS011;11438;52.044;8.716;2023-09-18T08:34:00;3.33;;;1.55;;
22543;SDS011;11438;52.044;8.716;2023-09-18T08:36:26;8.82;;;1.42;;
22543;SDS011;11438;52.044;8.716;2023-09-18T08:38:54;4.22;;;1.15;;
22543;SDS011;11438;52.044;8.716;2023-09-18T08:41:19;6.80;;;1.52;;
22543;SDS011;11438;52.044;8.716;2023-09-18T08:43:47;4.45;;;1.10;;
22543;SDS011;11438;52.044;8.716;2023-09-18T08:46:15;4.20;;;1.25;;
22543;SDS011;11438;52.044;8.716;2023-09-18T08:48:41;2.35;;;1.10;;
22543;SDS011;11438;52.044;8.716;2023-09-18T08:51:07;3.85;;;1.02;;
22543;SDS011;11438;52.044;8.716;2023-09-18T08:53:34;3.42;;;1.60;;
22543;SDS011;11438;52.044;8.716;2023-09-18T08:56:01;4.32;;;1.50;;
22543;SDS011;11438;52.044;8.716;2023-09-18T08:58:32;2.80;;;1.30;;
22543;SDS011;11438;52.044;8.716;2023-09-18T09:01:04;4.80;;;1.25;;
22543;SDS011;11438;52.044;8.716;2023-09-18T09:03:31;2.53;;;1.20;;
22543;SDS011;11438;52.044;8.716;2023-09-18T09:05:59;5.18;;;1.10;;
22543;SDS011;11438;52.044;8.716;2023-09-18T09:08:26;3.85;;;1.13;;
22543;SDS011;11438;52.044;8.716;2023-09-18T09:10:53;4.10;;;1.48;;
22543;SDS011;11438;52.044;8.716;2023-09-18T09:13:18;3.47;;;1.30;;
22543;SDS011;11438;52.044;8.716;2023-09-18T09:15:50;3.38;;;1.30;;
22543;SDS011;11438;52.044;8.716;2023-09-18T09:18:18;3.50;;;1.20;;
22543;SDS011;11438;52.044;8.716;2023-09-18T09:20:57;2.10;;;1.20;;
22543;SDS011;11438;52.044;8.716;2023-09-18T09:23:25;3.58;;;1.08;;
22543;SDS011;11438;52.044;8.716;2023-09-18T09:25:51;2.63;;;1.10;;
22543;SDS011;11438;52.044;8.716;2023-09-18T09:28:28;3.28;;;1.25;;
22543;SDS011;11438;52.044;8.716;2023-09-18T09:31:00;6.05;;;1.33;;
22543;SDS011;11438;52.044;8.716;2023-09-18T09:33:29;5.68;;;1.70;;
22543;SDS011;11438;52.044;8.716;2023-09-18T09:35:55;4.47;;;1.40;;
22543;SDS011;11438;52.044;8.716;2023-09-18T09:38:28;4.03;;;1.35;;
22543;SDS011;11438;52.044;8.716;2023-09-18T09:40:57;5.47;;;1.20;;
22543;SDS011;11438;52.044;8.716;2023-09-18T09:43:24;3.67;;;1.13;;
22543;SDS011;11438;52.044;8.716;2023-09-18T09:45:55;4.13;;;1.23;;
22543;SDS011;11438;52.044;8.716;2023-09-18T09:48:23;3.20;;;1.15;;
22543;SDS011;11438;52.044;8.716;2023-09-18T09:50:49;4.68;;;1.30;;
22543;SDS011;11438;52.044;8.716;2023-09-18T09:53:15;2.97;;;1.20;;
22543;SDS011;11438;52.044;8.716;2023-09-18T09:55:41;2.40;;;1.20;;
22543;SDS011;11438;52.044;8.716;2023-09-18T09:58:08;5.00;;;1.10;;
22543;SDS011;11438;52.044;8.716;2023-09-18T10:00:49;2.40;;;0.98;;
22543;SDS011;11438;52.044;8.716;2023-09-18T10:03:18;3.85;;;1.17;;
22543;SDS011;11438;52.044;8.716;2023-09-18T10:05:46;3.75;;;1.13;;
22543;SDS011;11438;52.044;8.716;2023-09-18T10:08:19;3.83;;;1.13;;
22543;SDS011;11438;52.044;8.716;2023-09-18T10:10:51;4.80;;;1.00;;
22543;SDS011;11438;52.044;8.716;2023-09-18T10:13:36;2.17;;;1.00;;
22543;SDS011;11438;52.044;8.716;2023-09-18T10:16:06;5.15;;;1.10;;
22543;SDS011;11438;52.044;8.716;2023-09-18T10:21:22;6.20;;;1.42;;
22543;SDS011;11438;52.044;8.716;2023-09-18T10:26:41;2.83;;;1.00;;
22543;SDS011;11438;52.044;8.716;2023-09-18T10:29:15;2.50;;;0.93;;
22543;SDS011;11438;52.044;8.716;2023-09-18T10:31:43;3.33;;;1.17;;
22543;SDS011;11438;52.044;8.716;2023-09-18T10:34:11;2.40;;;0.90;;
22543;SDS011;11438;52.044;8.716;2023-09-18T10:36:39;3.42;;;1.08;;
22543;SDS011;11438;52.044;8.716;2023-09-18T10:39:07;3.53;;;1.15;;
22543;SDS011;11438;52.044;8.716;2023-09-18T10:41:37;2.53;;;0.70;;
22543;SDS011;11438;52.044;8.716;2023-09-18T10:44:03;3.22;;;1.10;;
22543;SDS011;11438;52.044;8.716;2023-09-18T10:46:29;3.97;;;1.00;;
22543;SDS011;11438;52.044;8.716;2023-09-18T10:48:55;2.90;;;1.25;;
22543;SDS011;11438;52.044;8.716;2023-09-18T10:51:22;2.28;;;0.95;;
22543;SDS011;11438;52.044;8.716;2023-09-18T10:53:48;3.45;;;0.98;;
22543;SDS011;11438;52.044;8.716;2023-09-18T10:56:17;2.10;;;0.90;;
22543;SDS011;11438;52.044;8.716;2023-09-18T10:58:45;3.60;;;1.00;;
22543;SDS011;11438;52.044;8.716;2023-09-18T11:01:14;1.85;;;0.80;;
22543;SDS011;11438;52.044;8.716;2023-09-18T11:03:39;6.13;;;1.13;;
22543;SDS011;11438;52.044;8.716;2023-09-18T11:06:15;2.97;;;1.00;;
22543;SDS011;11438;52.044;8.716;2023-09-18T11:08:46;2.70;;;1.02;;
22543;SDS011;11438;52.044;8.716;2023-09-18T11:11:16;2.35;;;1.05;;
22543;SDS011;11438;52.044;8.716;2023-09-18T11:13:46;5.88;;;1.17;;
22543;SDS011;11438;52.044;8.716;2023-09-18T11:16:13;4.18;;;1.38;;
22543;SDS011;11438;52.044;8.716;2023-09-18T11:18:52;3.47;;;0.90;;
22543;SDS011;11438;52.044;8.716;2023-09-18T11:21:39;2.45;;;0.90;;
22543;SDS011;11438;52.044;8.716;2023-09-18T11:26:36;2.72;;;1.00;;
22543;SDS011;11438;52.044;8.716;2023-09-18T11:29:05;3.85;;;1.00;;
22543;SDS011;11438;52.044;8.716;2023-09-18T11:31:42;2.83;;;0.90;;
22543;SDS011;11438;52.044;8.716;2023-09-18T11:34:32;3.00;;;0.95;;
22543;SDS011;11438;52.044;8.716;2023-09-18T11:37:00;1.45;;;0.80;;
22543;SDS011;11438;52.044;8.716;2023-09-18T11:39:38;3.13;;;1.00;;
22543;SDS011;11438;52.044;8.716;2023-09-18T11:42:12;2.13;;;0.90;;
22543;SDS011;11438;52.044;8.716;2023-09-18T11:44:39;2.20;;;0.90;;
22543;SDS011;11438;52.044;8.716;2023-09-18T11:47:12;3.00;;;0.80;;
22543;SDS011;11438;52.044;8.716;2023-09-18T11:49:52;1.98;;;0.80;;
22543;SDS011;11438;52.044;8.716;2023-09-18T11:52:23;2.15;;;0.93;;
22543;SDS011;11438;52.044;8.716;2023-09-18T11:54:55;2.35;;;1.00;;
22543;SDS011;11438;52.044;8.716;2023-09-18T11:57:22;2.33;;;0.80;;
22543;SDS011;11438;52.044;8.716;2023-09-18T11:59:48;3.22;;;0.80;;
22543;SDS011;11438;52.044;8.716;2023-09-18T12:02:25;2.55;;;0.90;;
22543;SDS011;11438;52.044;8.716;2023-09-18T12:05:04;2.50;;;1.10;;
22543;SDS011;11438;52.044;8.716;2023-09-18T12:07:40;1.70;;;0.80;;
22543;SDS011;11438;52.044;8.716;2023-09-18T12:10:10;2.10;;;0.90;;
22543;SDS011;11438;52.044;8.716;2023-09-18T12:12:36;2.80;;;0.80;;
22543;SDS011;11438;52.044;8.716;2023-09-18T12:15:02;2.55;;;1.10;;
22543;SDS011;11438;52.044;8.716;2023-09-18T12:17:29;2.22;;;1.00;;
22543;SDS011;11438;52.044;8.716;2023-09-18T12:19:54;2.63;;;0.90;;
22543;SDS011;11438;52.044;8.716;2023-09-18T12:22:27;1.40;;;0.85;;
22543;SDS011;11438;52.044;8.716;2023-09-18T12:25:12;2.08;;;0.80;;
22543;SDS011;11438;52.044;8.716;2023-09-18T12:27:39;4.03;;;0.75;;
22543;SDS011;11438;52.044;8.716;2023-09-18T12:30:06;1.20;;;0.73;;
22543;SDS011;11438;52.044;8.716;2023-09-18T12:32:33;1.83;;;0.90;;
22543;SDS011;11438;52.044;8.716;2023-09-18T12:35:02;1.83;;;0.80;;
22543;SDS011;11438;52.044;8.716;2023-09-18T12:37:31;1.48;;;0.75;;
22543;SDS011;11438;52.044;8.716;2023-09-18T12:39:57;3.20;;;0.88;;
22543;SDS011;11438;52.044;8.716;2023-09-18T12:42:23;2.42;;;0.93;;
22543;SDS011;11438;52.044;8.716;2023-09-18T12:44:49;2.70;;;0.70;;
22543;SDS011;11438;52.044;8.716;2023-09-18T12:47:15;1.40;;;0.70;;
22543;SDS011;11438;52.044;8.716;2023-09-18T12:49:41;3.08;;;0.82;;
22543;SDS011;11438;52.044;8.716;2023-09-18T12:52:06;1.98;;;0.70;;
22543;SDS011;11438;52.044;8.716;2023-09-18T12:54:42;3.05;;;0.90;;
22543;SDS011;11438;52.044;8.716;2023-09-18T12:57:10;6.50;;;0.80;;
22543;SDS011;11438;52.044;8.716;2023-09-18T12:59:39;2.75;;;0.70;;
22543;SDS011;11438;52.044;8.716;2023-09-18T13:02:05;1.85;;;0.82;;
22543;SDS011;11438;52.044;8.716;2023-09-18T13:04:32;2.92;;;0.93;;
22543;SDS011;11438;52.044;8.716;2023-09-18T13:07:11;1.90;;;0.80;;
22543;SDS011;11438;52.044;8.716;2023-09-18T13:09:38;2.38;;;0.90;;
22543;SDS011;11438;52.044;8.716;2023-09-18T13:12:07;1.20;;;0.80;;
22543;SDS011;11438;52.044;8.716;2023-09-18T13:17:37;2.30;;;0.90;;
22543;SDS011;11438;52.044;8.716;2023-09-18T13:20:09;1.42;;;0.70;;
22543;SDS011;11438;52.044;8.716;2023-09-18T13:22:36;2.38;;;0.80;;
22543;SDS011;11438;52.044;8.716;2023-09-18T13:25:02;1.55;;;0.73;;
22543;SDS011;11438;52.044;8.716;2023-09-18T13:27:28;2.28;;;0.77;;
22543;SDS011;11438;52.044;8.716;2023-09-18T13:29:53;2.47;;;0.80;;
22543;SDS011;11438;52.044;8.716;2023-09-18T13:32:20;1.67;;;0.77;;
22543;SDS011;11438;52.044;8.716;2023-09-18T13:34:46;1.33;;;0.60;;
22543;SDS011;11438;52.044;8.716;2023-09-18T13:37:12;4.45;;;1.00;;
22543;SDS011;11438;52.044;8.716;2023-09-18T13:39:39;2.70;;;1.20;;
22543;SDS011;11438;52.044;8.716;2023-09-18T13:42:04;2.92;;;0.77;;
22543;SDS011;11438;52.044;8.716;2023-09-18T13:44:30;1.35;;;0.73;;
22543;SDS011;11438;52.044;8.716;2023-09-18T13:46:56;4.55;;;0.80;;
22543;SDS011;11438;52.044;8.716;2023-09-18T13:49:21;1.45;;;0.70;;
22543;SDS011;11438;52.044;8.716;2023-09-18T13:51:47;4.05;;;0.80;;
22543;SDS011;11438;52.044;8.716;2023-09-18T13:54:15;1.90;;;0.85;;
22543;SDS011;11438;52.044;8.716;2023-09-18T13:56:41;2.13;;;1.20;;
22543;SDS011;11438;52.044;8.716;2023-09-18T13:59:08;1.98;;;0.80;;
22543;SDS011;11438;52.044;8.716;2023-09-18T14:01:35;2.92;;;0.80;;
22543;SDS011;11438;52.044;8.716;2023-09-18T14:04:00;1.98;;;0.90;;
22543;SDS011;11438;52.044;8.716;2023-09-18T14:06:26;1.25;;;0.70;;
22543;SDS011;11438;52.044;8.716;2023-09-18T14:08:51;0.98;;;0.60;;
22543;SDS011;11438;52.044;8.716;2023-09-18T14:11:17;1.38;;;0.80;;
22543;SDS011;11438;52.044;8.716;2023-09-18T14:13:43;1.92;;;0.70;;
22543;SDS011;11438;52.044;8.716;2023-09-18T14:16:09;4.85;;;0.90;;
22543;SDS011;11438;52.044;8.716;2023-09-18T14:18:35;2.47;;;0.98;;
22543;SDS011;11438;52.044;8.716;2023-09-18T14:21:01;1.02;;;0.70;;
22543;SDS011;11438;52.044;8.716;2023-09-18T14:23:27;1.90;;;0.80;;
22543;SDS011;11438;52.044;8.716;2023-09-18T14:25:53;1.77;;;0.70;;
22543;SDS011;11438;52.044;8.716;2023-09-18T14:28:20;1.38;;;0.70;;
22543;SDS011;11438;52.044;8.716;2023-09-18T14:30:46;1.58;;;0.70;;
22543;SDS011;11438;52.044;8.716;2023-09-18T14:33:11;1.77;;;0.80;;
22543;SDS011;11438;52.044;8.716;2023-09-18T14:35:39;1.77;;;0.60;;
22543;SDS011;11438;52.044;8.716;2023-09-18T14:38:04;2.13;;;0.90;;
22543;SDS011;11438;52.044;8.716;2023-09-18T14:40:31;2.38;;;0.80;;
22543;SDS011;11438;52.044;8.716;2023-09-18T14:42:57;0.90;;;0.70;;
22543;SDS011;11438;52.044;8.716;2023-09-18T14:45:22;2.03;;;0.70;;
22543;SDS011;11438;52.044;8.716;2023-09-18T14:47:48;2.33;;;0.70;;
22543;SDS011;11438;52.044;8.716;2023-09-18T14:50:15;1.58;;;0.50;;
22543;SDS011;11438;52.044;8.716;2023-09-18T14:52:41;1.75;;;0.63;;
22543;SDS011;11438;52.044;8.716;2023-09-18T14:55:06;1.67;;;0.73;;
22543;SDS011;11438;52.044;8.716;2023-09-18T14:57:32;1.83;;;1.05;;
22543;SDS011;11438;52.044;8.716;2023-09-18T15:00:00;1.15;;;0.80;;